createdAt,value
2018-07-21T00:00:46.093Z,1.90
2018-07-21T00:03:14.670Z,2.23
2018-07-21T00:05:43.287Z,1.80
2018-07-21T00:08:11.695Z,2.17
2018-07-21T00:10:40.221Z,2.13
2018-07-21T00:13:08.677Z,2.20
2018-07-21T00:15:37.121Z,2.50
2018-07-21T00:18:05.964Z,1.77
2018-07-21T00:20:34.385Z,2.50
2018-07-21T00:23:03.039Z,2.03
2018-07-21T00:25:31.484Z,2.43
2018-07-21T00:27:59.822Z,2.20
2018-07-21T00:30:28.524Z,1.93
2018-07-21T00:32:56.975Z,2.30
2018-07-21T00:35:25.137Z,1.80
2018-07-21T00:37:53.508Z,2.47
2018-07-21T00:40:22.398Z,2.03
2018-07-21T00:42:50.835Z,2.13
2018-07-21T00:45:19.276Z,2.30
2018-07-21T00:47:47.834Z,2.60
2018-07-21T00:50:16.188Z,1.60
2018-07-21T00:52:44.659Z,2.53
2018-07-21T00:55:13.029Z,2.27
2018-07-21T00:57:41.837Z,1.97
2018-07-21T01:00:10.356Z,1.90
2018-07-21T01:02:38.816Z,2.17
2018-07-21T01:05:07.271Z,2.10
2018-07-21T01:07:35.658Z,2.20
2018-07-21T01:10:04.606Z,2.40
2018-07-21T01:12:33.057Z,1.57
2018-07-21T01:15:01.520Z,2.20
2018-07-21T01:17:30.137Z,2.33
2018-07-21T01:19:58.515Z,1.90
2018-07-21T01:22:27.044Z,2.10
2018-07-21T01:24:55.216Z,2.13
2018-07-21T01:27:23.394Z,1.93
2018-07-21T01:29:51.905Z,2.23
2018-07-21T01:32:20.435Z,1.80
2018-07-21T01:34:49.053Z,2.57
2018-07-21T01:37:17.590Z,1.90
2018-07-21T01:39:45.715Z,2.00
2018-07-21T01:42:14.157Z,1.80
2018-07-21T01:44:42.612Z,1.83
2018-07-21T01:47:10.972Z,1.97
2018-07-21T01:49:39.336Z,1.80
2018-07-21T01:52:07.658Z,1.53
2018-07-21T01:54:36.052Z,2.07
2018-07-21T01:57:04.988Z,2.10
2018-07-21T01:59:33.378Z,1.83
2018-07-21T02:02:01.825Z,2.27
2018-07-21T02:04:30.244Z,2.00
2018-07-21T02:06:58.714Z,1.90
2018-07-21T02:09:26.986Z,2.10
2018-07-21T02:11:55.326Z,2.03
2018-07-21T02:14:23.743Z,2.10
2018-07-21T02:16:52.812Z,1.80
2018-07-21T02:19:21.480Z,1.80
2018-07-21T02:21:50.259Z,2.17
2018-07-21T02:24:18.850Z,2.30
2018-07-21T02:26:47.488Z,1.97
2018-07-21T02:29:16.552Z,1.70
2018-07-21T02:31:45.043Z,1.90
2018-07-21T02:34:13.460Z,2.03
2018-07-21T02:36:41.874Z,2.07
2018-07-21T02:39:11.854Z,2.53
2018-07-21T02:41:40.442Z,1.87
2018-07-21T02:44:08.807Z,2.27
2018-07-21T02:46:37.613Z,2.07
2018-07-21T02:49:06.288Z,2.20
2018-07-21T02:51:34.781Z,2.30
2018-07-21T02:54:03.593Z,2.60
2018-07-21T02:56:32.113Z,1.73
2018-07-21T02:59:00.633Z,1.93
2018-07-21T03:01:29.078Z,2.10
2018-07-21T03:03:58.247Z,1.77
2018-07-21T03:06:26.423Z,2.27
2018-07-21T03:08:54.888Z,2.17
2018-07-21T03:11:23.482Z,2.17
2018-07-21T03:13:52.021Z,2.33
2018-07-21T03:16:20.485Z,2.23
2018-07-21T03:18:49.020Z,2.20
2018-07-21T03:21:17.666Z,2.13
2018-07-21T03:23:46.201Z,1.90
2018-07-21T03:26:15.329Z,1.80
2018-07-21T03:28:44.250Z,2.20
2018-07-21T03:31:13.013Z,1.93
2018-07-21T03:33:41.235Z,2.60
2018-07-21T03:36:09.985Z,2.13
2018-07-21T03:38:38.801Z,2.30
2018-07-21T03:41:07.322Z,2.37
2018-07-21T03:43:37.172Z,2.23
2018-07-21T03:46:06.507Z,2.47
2018-07-21T03:48:35.905Z,2.27
2018-07-21T03:51:04.559Z,2.33
2018-07-21T03:53:33.131Z,2.67
2018-07-21T03:56:02.720Z,2.30
2018-07-21T03:58:31.818Z,2.20
2018-07-21T04:01:01.328Z,1.90
2018-07-21T04:03:31.227Z,2.33
2018-07-21T04:06:00.170Z,2.37
2018-07-21T04:08:29.059Z,2.17
2018-07-21T04:10:58.031Z,2.27
2018-07-21T04:13:26.646Z,2.13
2018-07-21T04:15:55.391Z,2.00
2018-07-21T04:18:24.713Z,2.10
2018-07-21T04:20:52.981Z,1.93
2018-07-21T04:23:21.746Z,1.70
2018-07-21T04:25:50.952Z,1.80
2018-07-21T04:28:20.450Z,2.07
2018-07-21T04:30:49.263Z,2.30
2018-07-21T04:33:17.888Z,1.60
2018-07-21T04:35:46.614Z,1.77
2018-07-21T04:38:15.359Z,1.50
2018-07-21T04:40:44.257Z,2.23
2018-07-21T04:43:13.017Z,1.97
2018-07-21T04:45:41.687Z,2.00
2018-07-21T04:48:10.625Z,2.03
2018-07-21T04:50:39.217Z,1.90
2018-07-21T04:53:08.340Z,2.20
2018-07-21T04:55:36.479Z,2.20
2018-07-21T04:58:05.309Z,2.30
2018-07-21T05:00:34.111Z,1.77
2018-07-21T05:03:03.010Z,1.90
2018-07-21T05:05:31.335Z,1.87
2018-07-21T05:07:59.884Z,1.70
2018-07-21T05:10:28.437Z,1.93
2018-07-21T05:12:57.543Z,1.80
2018-07-21T05:15:26.509Z,1.60
2018-07-21T05:17:55.113Z,1.53
2018-07-21T05:20:23.884Z,1.80
2018-07-21T05:22:52.321Z,1.90
2018-07-21T05:25:21.059Z,1.83
2018-07-21T05:27:49.466Z,2.10
2018-07-21T05:30:17.943Z,1.70
2018-07-21T05:32:46.546Z,2.10
2018-07-21T05:35:14.930Z,2.00
2018-07-21T05:37:43.512Z,1.87
2018-07-21T05:40:11.901Z,2.07
2018-07-21T05:42:40.309Z,1.60
2018-07-21T05:45:08.801Z,2.17
2018-07-21T05:47:37.104Z,1.97
2018-07-21T05:50:05.943Z,1.87
2018-07-21T05:52:34.510Z,2.40
2018-07-21T05:55:02.941Z,2.00
2018-07-21T05:57:31.313Z,1.87
2018-07-21T05:59:59.761Z,2.07
2018-07-21T06:02:28.305Z,2.10
2018-07-21T06:04:56.829Z,2.33
2018-07-21T06:07:25.346Z,2.30
2018-07-21T06:09:53.758Z,2.73
2018-07-21T06:12:22.708Z,2.27
2018-07-21T06:14:51.159Z,2.17
2018-07-21T06:17:19.506Z,1.97
2018-07-21T06:19:48.139Z,2.10
2018-07-21T06:22:16.533Z,2.10
2018-07-21T06:24:45.013Z,2.40
2018-07-21T06:27:13.346Z,2.33
2018-07-21T06:29:41.434Z,2.10
2018-07-21T06:32:09.862Z,2.57
2018-07-21T06:34:38.629Z,2.07
2018-07-21T06:37:07.101Z,2.20
2018-07-21T06:39:35.499Z,2.30
2018-07-21T06:42:03.911Z,2.27
2018-07-21T06:44:32.693Z,2.33
2018-07-21T06:47:00.824Z,2.13
2018-07-21T06:49:30.794Z,2.30
2018-07-21T06:51:59.618Z,2.10
2018-07-21T06:54:27.864Z,2.43
2018-07-21T06:56:56.339Z,2.20
2018-07-21T06:59:24.696Z,2.80
2018-07-21T07:01:52.775Z,2.40
2018-07-21T07:04:20.876Z,2.10
2018-07-21T07:06:49.743Z,2.30
2018-07-21T07:09:18.591Z,2.70
2018-07-21T07:11:47.478Z,2.40
2018-07-21T07:14:16.955Z,2.40
2018-07-21T07:16:45.447Z,2.73
2018-07-21T07:19:13.931Z,2.43
2018-07-21T07:21:42.019Z,2.23
2018-07-21T07:24:10.629Z,2.20
2018-07-21T07:26:39.739Z,2.70
2018-07-21T07:29:07.871Z,2.80
2018-07-21T07:31:36.907Z,2.53
2018-07-21T07:34:05.716Z,2.60
2018-07-21T07:36:34.492Z,2.37
2018-07-21T07:39:03.041Z,2.43
2018-07-21T07:41:32.361Z,2.53
2018-07-21T07:44:00.865Z,2.23
2018-07-21T07:46:29.516Z,2.43
2018-07-21T07:48:58.379Z,2.57
2018-07-21T07:51:27.308Z,2.20
2018-07-21T07:53:56.681Z,2.27
2018-07-21T07:56:25.283Z,2.50
2018-07-21T07:58:53.807Z,2.23
2018-07-21T08:01:22.576Z,2.57
2018-07-21T08:03:50.939Z,2.47
2018-07-21T08:06:19.745Z,2.37
2018-07-21T08:08:48.051Z,3.23
2018-07-21T08:11:16.401Z,2.63
2018-07-21T08:13:44.726Z,2.40
2018-07-21T08:16:13.070Z,2.40
2018-07-21T08:18:41.436Z,2.73
2018-07-21T08:21:09.916Z,2.40
2018-07-21T08:23:38.321Z,2.90
2018-07-21T08:26:06.845Z,2.60
2018-07-21T08:28:35.142Z,2.43
2018-07-21T08:31:03.484Z,2.03
2018-07-21T08:33:31.874Z,2.30
2018-07-21T08:36:00.185Z,2.50
2018-07-21T08:38:28.929Z,2.83
2018-07-21T08:40:57.134Z,2.40
2018-07-21T08:43:25.501Z,2.43
2018-07-21T08:45:53.900Z,2.70
2018-07-21T08:48:21.965Z,2.73
2018-07-21T08:50:50.476Z,2.50
2018-07-21T08:53:18.603Z,2.40
2018-07-21T08:55:46.915Z,2.47
2018-07-21T08:58:15.235Z,2.40
2018-07-21T09:00:43.484Z,3.03
2018-07-21T09:03:11.867Z,2.40
2018-07-21T09:05:40.268Z,2.67
2018-07-21T09:08:08.709Z,3.17
2018-07-21T09:10:36.879Z,2.70
2018-07-21T09:13:05.320Z,2.60
2018-07-21T09:15:33.696Z,2.40
2018-07-21T09:18:02.001Z,2.50
2018-07-21T09:20:30.363Z,2.47
2018-07-21T09:22:58.730Z,2.40
2018-07-21T09:25:27.025Z,2.40
2018-07-21T09:27:55.416Z,2.73
2018-07-21T09:30:24.528Z,2.90
2018-07-21T09:32:53.178Z,2.33
2018-07-21T09:35:21.505Z,2.83
2018-07-21T09:37:50.016Z,2.80
2018-07-21T09:40:18.482Z,2.57
2018-07-21T09:42:46.585Z,2.70
2018-07-21T09:45:14.925Z,2.63
2018-07-21T09:47:43.301Z,2.70
2018-07-21T09:50:11.714Z,2.50
2018-07-21T09:52:40.277Z,2.70
2018-07-21T09:55:09.537Z,2.50
2018-07-21T09:57:38.198Z,2.50
2018-07-21T10:00:08.408Z,2.40
2018-07-21T10:02:37.198Z,2.63
2018-07-21T10:05:05.251Z,2.43
2018-07-21T10:07:33.576Z,2.23
2018-07-21T10:10:01.679Z,2.93
2018-07-21T10:12:30.007Z,3.20
2018-07-21T10:14:58.591Z,2.80
2018-07-21T10:17:26.983Z,3.20
2018-07-21T10:19:55.292Z,2.60
2018-07-21T10:22:23.710Z,2.40
2018-07-21T10:24:57.232Z,2.97
2018-07-21T10:27:29.743Z,2.70
2018-07-21T10:29:58.088Z,3.10
2018-07-21T10:32:26.393Z,2.70
2018-07-21T10:34:54.705Z,3.10
2018-07-21T10:37:22.994Z,2.80
2018-07-21T10:39:51.422Z,2.87
2018-07-21T10:42:19.723Z,2.50
2018-07-21T10:44:48.001Z,3.00
2018-07-21T10:47:16.309Z,2.77
2018-07-21T10:49:44.644Z,2.97
2018-07-21T10:52:12.971Z,2.60
2018-07-21T10:54:41.505Z,2.90
2018-07-21T10:57:10.187Z,2.80
2018-07-21T10:59:38.239Z,2.63
2018-07-21T11:02:06.540Z,2.90
2018-07-21T11:04:34.835Z,2.37
2018-07-21T11:07:03.264Z,2.70
2018-07-21T11:09:31.665Z,2.50
2018-07-21T11:11:59.961Z,2.90
2018-07-21T11:14:28.305Z,2.73
2018-07-21T11:16:56.593Z,2.60
2018-07-21T11:19:24.903Z,2.57
2018-07-21T11:21:53.327Z,2.63
2018-07-21T11:24:21.629Z,2.87
2018-07-21T11:26:49.932Z,2.80
2018-07-21T11:29:18.283Z,2.57
2018-07-21T11:31:46.600Z,2.67
2018-07-21T11:34:15.366Z,2.87
2018-07-21T11:36:43.701Z,2.97
2018-07-21T11:39:12.001Z,2.90
2018-07-21T11:41:40.320Z,2.97
2018-07-21T11:44:08.586Z,2.70
2018-07-21T11:46:36.949Z,2.73
2018-07-21T11:49:05.512Z,2.80
2018-07-21T11:51:33.817Z,2.67
2018-07-21T11:54:02.119Z,2.73
2018-07-21T11:56:30.521Z,2.90
2018-07-21T11:58:58.850Z,2.97
2018-07-21T12:01:27.253Z,2.10
2018-07-21T12:03:55.603Z,2.23
2018-07-21T12:06:23.929Z,3.10
2018-07-21T12:08:52.227Z,2.80
2018-07-21T12:11:20.591Z,2.37
2018-07-21T12:13:48.648Z,2.50
2018-07-21T12:16:16.947Z,2.60
2018-07-21T12:18:45.275Z,2.30
2018-07-21T12:21:13.812Z,2.73
2018-07-21T12:23:42.118Z,3.17
2018-07-21T12:26:10.393Z,2.50
2018-07-21T12:28:38.692Z,2.80
2018-07-21T12:31:06.965Z,2.70
2018-07-21T12:33:35.262Z,2.30
2018-07-21T12:36:03.569Z,2.40
2018-07-21T12:38:31.953Z,2.47
2018-07-21T12:41:00.255Z,2.47
2018-07-21T12:43:28.556Z,2.77
2018-07-21T12:45:56.567Z,2.60
2018-07-21T12:48:24.912Z,3.00
2018-07-21T12:50:53.184Z,3.13
2018-07-21T12:53:21.453Z,2.67
2018-07-21T12:55:49.880Z,2.77
2018-07-21T12:58:18.150Z,2.30
2018-07-21T13:00:46.424Z,2.63
2018-07-21T13:03:14.728Z,2.60
2018-07-21T13:05:43.000Z,2.60
2018-07-21T13:08:11.278Z,2.90
2018-07-21T13:10:39.553Z,2.73
2018-07-21T13:13:07.823Z,2.47
2018-07-21T13:15:36.120Z,2.70
2018-07-21T13:18:04.720Z,2.87
2018-07-21T13:20:33.056Z,3.00
2018-07-21T13:23:01.536Z,2.97
2018-07-21T13:25:29.853Z,2.80
2018-07-21T13:27:58.134Z,2.83
2018-07-21T13:30:26.196Z,2.87
2018-07-21T13:32:54.569Z,3.17
2018-07-21T13:35:22.915Z,2.43
2018-07-21T13:37:50.903Z,2.73
2018-07-21T13:40:19.167Z,2.50
2018-07-21T13:42:47.445Z,2.97
2018-07-21T13:45:15.709Z,3.40
2018-07-21T13:47:43.971Z,2.60
2018-07-21T13:50:12.216Z,2.80
2018-07-21T13:52:40.542Z,2.83
2018-07-21T13:55:08.819Z,3.23
2018-07-21T13:57:36.875Z,3.30
2018-07-21T14:00:05.445Z,3.00
2018-07-21T14:02:33.688Z,2.77
2018-07-21T14:05:01.755Z,2.63
2018-07-21T14:07:30.057Z,3.00
2018-07-21T14:09:58.136Z,3.07
2018-07-21T14:12:26.187Z,3.03
2018-07-21T14:14:54.596Z,2.70
2018-07-21T14:17:23.015Z,3.00
2018-07-21T14:19:51.316Z,2.60
2018-07-21T14:22:19.585Z,3.10
2018-07-21T14:24:47.856Z,3.07
2018-07-21T14:27:16.136Z,2.43
2018-07-21T14:29:44.502Z,2.80
2018-07-21T14:32:12.992Z,2.60
2018-07-21T14:34:41.269Z,2.67
2018-07-21T14:37:09.552Z,2.60
2018-07-21T14:39:37.823Z,3.20
2018-07-21T14:42:06.321Z,2.67
2018-07-21T14:44:34.664Z,2.90
2018-07-21T14:47:03.102Z,2.67
2018-07-21T14:49:31.360Z,2.50
2018-07-21T14:51:59.657Z,2.40
2018-07-21T14:54:27.754Z,2.30
2018-07-21T14:56:56.060Z,2.60
2018-07-21T14:59:24.515Z,3.07
2018-07-21T15:01:52.885Z,2.70
2018-07-21T15:04:21.415Z,2.80
2018-07-21T15:06:49.777Z,2.93
2018-07-21T15:09:18.056Z,2.73
2018-07-21T15:11:46.343Z,2.83
2018-07-21T15:14:14.675Z,2.50
2018-07-21T15:16:43.119Z,2.57
2018-07-21T15:19:11.416Z,2.33
2018-07-21T15:21:39.720Z,2.00
2018-07-21T15:24:08.055Z,2.10
2018-07-21T15:26:36.431Z,2.73
2018-07-21T15:29:04.692Z,2.23
2018-07-21T15:31:33.020Z,2.50
2018-07-21T15:34:01.348Z,2.40
2018-07-21T15:36:29.640Z,3.00
2018-07-21T15:38:57.947Z,2.37
2018-07-21T15:41:26.332Z,3.10
2018-07-21T15:43:54.716Z,2.60
2018-07-21T15:46:23.047Z,2.83
2018-07-21T15:48:51.031Z,2.63
2018-07-21T15:51:19.338Z,2.30
2018-07-21T15:53:47.657Z,2.67
2018-07-21T15:56:15.944Z,2.70
2018-07-21T15:58:44.279Z,2.70
2018-07-21T16:01:12.291Z,2.43
2018-07-21T16:03:40.569Z,2.80
2018-07-21T16:06:08.919Z,2.83
2018-07-21T16:08:37.228Z,2.93
2018-07-21T16:11:05.667Z,2.87
2018-07-21T16:13:33.978Z,2.30
2018-07-21T16:16:02.270Z,2.70
2018-07-21T16:18:30.613Z,2.70
2018-07-21T16:20:59.036Z,2.50
2018-07-21T16:23:27.383Z,10.90
2018-07-21T16:25:55.755Z,2.83
2018-07-21T16:28:23.820Z,2.33
2018-07-21T16:30:51.863Z,2.23
2018-07-21T16:33:20.196Z,3.50
2018-07-21T16:35:48.836Z,2.50
2018-07-21T16:38:17.152Z,2.67
2018-07-21T16:40:45.473Z,3.00
2018-07-21T16:43:14.193Z,3.90
2018-07-21T16:45:42.494Z,4.50
2018-07-21T16:48:10.800Z,4.60
2018-07-21T16:50:39.100Z,3.20
2018-07-21T16:53:07.404Z,3.43
2018-07-21T16:55:35.704Z,3.30
2018-07-21T16:58:03.964Z,3.03
2018-07-21T17:00:32.247Z,3.20
2018-07-21T17:03:00.546Z,3.00
2018-07-21T17:05:28.836Z,2.87
2018-07-21T17:07:57.171Z,2.90
2018-07-21T17:10:25.248Z,2.80
2018-07-21T17:12:53.285Z,7.40
2018-07-21T17:15:21.593Z,9.40
2018-07-21T17:17:49.897Z,11.87
2018-07-21T17:20:18.232Z,19.43
2018-07-21T17:22:46.559Z,14.53
2018-07-21T17:25:14.852Z,3.70
2018-07-21T17:27:43.160Z,21.33
2018-07-21T17:30:11.496Z,3.30
2018-07-21T17:32:39.804Z,6.27
2018-07-21T17:35:08.119Z,2.20
2018-07-21T17:37:36.490Z,2.80
2018-07-21T17:40:04.793Z,2.60
2018-07-21T17:42:33.105Z,2.40
2018-07-21T17:45:01.137Z,2.67
2018-07-21T17:47:29.448Z,3.00
2018-07-21T17:49:57.943Z,2.20
2018-07-21T17:52:26.339Z,2.23
2018-07-21T17:54:54.685Z,2.10
2018-07-21T17:57:23.013Z,2.20
2018-07-21T17:59:51.369Z,2.60
2018-07-21T18:02:19.664Z,3.00
2018-07-21T18:04:48.001Z,10.33
2018-07-21T18:07:16.342Z,10.43
2018-07-21T18:09:44.689Z,15.20
2018-07-21T18:12:12.739Z,29.70
2018-07-21T18:14:41.028Z,8.87
2018-07-21T18:17:09.309Z,6.30
2018-07-21T18:19:38.152Z,2.80
2018-07-21T18:22:06.221Z,2.20
2018-07-21T18:24:34.489Z,2.90
2018-07-21T18:27:02.816Z,2.80
2018-07-21T18:29:31.212Z,2.07
2018-07-21T18:31:59.696Z,2.10
2018-07-21T18:34:27.919Z,1.77
2018-07-21T18:36:56.304Z,9.53
2018-07-21T18:39:24.699Z,8.00
2018-07-21T18:41:53.152Z,8.33
2018-07-21T18:44:22.447Z,27.03
2018-07-21T18:46:50.736Z,18.27
2018-07-21T18:49:19.093Z,5.77
2018-07-21T18:51:47.396Z,8.40
2018-07-21T18:54:16.572Z,9.63
2018-07-21T18:56:44.898Z,4.13
2018-07-21T18:59:13.264Z,1.90
2018-07-21T19:01:41.593Z,2.20
2018-07-21T19:04:10.010Z,2.43
2018-07-21T19:06:38.125Z,2.30
2018-07-21T19:09:08.678Z,2.67
2018-07-21T19:11:37.165Z,2.10
2018-07-21T19:14:05.652Z,1.50
2018-07-21T19:16:38.075Z,1.67
2018-07-21T19:19:06.510Z,1.33
2018-07-21T19:21:34.656Z,2.47
2018-07-21T19:24:03.015Z,1.40
2018-07-21T19:26:36.742Z,1.50
2018-07-21T19:29:05.128Z,1.40
2018-07-21T19:31:33.440Z,1.30
2018-07-21T19:34:01.852Z,1.47
2018-07-21T19:36:30.355Z,1.33
2018-07-21T19:38:58.579Z,1.10
2018-07-21T19:41:32.400Z,1.50
2018-07-21T19:44:00.821Z,1.37
2018-07-21T19:46:29.411Z,1.40
2018-07-21T19:48:58.125Z,1.40
2018-07-21T19:51:26.784Z,1.50
2018-07-21T19:53:55.408Z,1.50
2018-07-21T19:56:24.119Z,1.47
2018-07-21T19:58:53.036Z,1.30
2018-07-21T20:01:21.278Z,1.73
2018-07-21T20:03:49.773Z,1.20
2018-07-21T20:06:18.616Z,1.57
2018-07-21T20:08:46.988Z,1.10
2018-07-21T20:11:15.621Z,1.10
2018-07-21T20:13:43.798Z,1.30
2018-07-21T20:16:12.176Z,1.20
2018-07-21T20:18:40.563Z,1.40
2018-07-21T20:21:09.023Z,1.20
2018-07-21T20:23:37.412Z,1.50
2018-07-21T20:26:05.788Z,1.27
2018-07-21T20:28:34.252Z,1.43
2018-07-21T20:31:02.321Z,1.40
2018-07-21T20:33:30.852Z,1.30
2018-07-21T20:35:59.305Z,1.17
2018-07-21T20:38:27.536Z,1.20
2018-07-21T20:40:56.236Z,1.33
2018-07-21T20:43:25.482Z,1.53
2018-07-21T20:45:53.985Z,1.50
2018-07-21T20:48:22.889Z,1.30
2018-07-21T20:50:51.300Z,1.40
2018-07-21T20:53:19.607Z,1.53
2018-07-21T20:55:48.029Z,1.50
2018-07-21T20:58:16.548Z,1.40
2018-07-21T21:00:45.050Z,1.60
2018-07-21T21:03:13.488Z,1.20
2018-07-21T21:05:41.820Z,1.50
2018-07-21T21:08:10.136Z,1.50
2018-07-21T21:10:38.600Z,1.17
2018-07-21T21:13:07.276Z,1.53
2018-07-21T21:15:35.687Z,1.60
2018-07-21T21:18:04.038Z,1.60
2018-07-21T21:20:32.426Z,1.33
2018-07-21T21:23:01.233Z,1.30
2018-07-21T21:25:29.693Z,1.60
2018-07-21T21:27:58.400Z,1.50
2018-07-21T21:30:26.527Z,1.47
2018-07-21T21:32:55.292Z,1.50
2018-07-21T21:35:23.909Z,1.80
2018-07-21T21:37:52.554Z,2.20
2018-07-21T21:40:21.017Z,2.10
2018-07-21T21:42:49.407Z,2.00
2018-07-21T21:45:17.881Z,2.00
2018-07-21T21:47:46.412Z,1.90
2018-07-21T21:50:14.782Z,1.87
2018-07-21T21:52:43.377Z,1.93
2018-07-21T21:55:11.882Z,2.30
2018-07-21T21:57:40.282Z,2.50
2018-07-21T22:00:10.429Z,2.60
2018-07-21T22:02:39.503Z,2.30
2018-07-21T22:05:07.818Z,2.50
2018-07-21T22:07:36.272Z,2.50
2018-07-21T22:10:05.196Z,2.13
2018-07-21T22:12:33.515Z,2.00
2018-07-21T22:15:01.932Z,2.70
2018-07-21T22:17:30.076Z,2.30
2018-07-21T22:19:58.668Z,2.27
2018-07-21T22:22:27.123Z,2.63
2018-07-21T22:24:55.584Z,2.53
2018-07-21T22:27:24.257Z,2.33
2018-07-21T22:29:52.738Z,3.07
2018-07-21T22:32:21.192Z,2.80
2018-07-21T22:34:49.420Z,2.80
2018-07-21T22:37:18.038Z,2.87
2018-07-21T22:39:46.555Z,3.20
2018-07-21T22:42:14.684Z,3.13
2018-07-21T22:44:43.004Z,3.27
2018-07-21T22:47:11.462Z,2.83
2018-07-21T22:49:39.848Z,3.73
2018-07-21T22:52:08.284Z,3.13
2018-07-21T22:54:36.757Z,4.23
2018-07-21T22:57:05.588Z,3.57
2018-07-21T22:59:33.952Z,3.40
2018-07-21T23:02:02.640Z,3.17
2018-07-21T23:04:31.141Z,3.27
2018-07-21T23:06:59.668Z,3.40
2018-07-21T23:09:28.062Z,4.00
2018-07-21T23:11:56.529Z,3.50
2018-07-21T23:14:25.342Z,3.40
2018-07-21T23:16:54.141Z,4.33
2018-07-21T23:19:23.266Z,4.00
2018-07-21T23:21:51.440Z,3.80
2018-07-21T23:24:19.958Z,3.70
2018-07-21T23:26:48.752Z,4.10
2018-07-21T23:29:17.322Z,4.77
2018-07-21T23:31:45.837Z,4.57
2018-07-21T23:34:14.651Z,4.07
2018-07-21T23:36:43.480Z,4.03
2018-07-21T23:39:12.215Z,4.57
2018-07-21T23:41:40.721Z,4.37
2018-07-21T23:44:08.808Z,4.37
2018-07-21T23:46:37.156Z,5.50
2018-07-21T23:49:05.792Z,5.00
2018-07-21T23:51:34.348Z,5.20
2018-07-21T23:54:02.801Z,5.00
2018-07-21T23:56:31.344Z,5.30
2018-07-21T23:58:59.867Z,6.03
